createdAt,value
2023-12-04T00:02:31.436Z,4.82
2023-12-04T00:05:34.416Z,5.32
2023-12-04T00:08:38.977Z,5.57
2023-12-04T00:11:42.021Z,4.47
2023-12-04T00:14:45.046Z,3.47
2023-12-04T00:17:48.235Z,5.15
2023-12-04T00:20:51.240Z,5.65
2023-12-04T00:23:54.205Z,4.10
2023-12-04T00:26:57.181Z,4.18
2023-12-04T00:30:00.274Z,4.23
2023-12-04T00:33:03.494Z,4.75
2023-12-04T00:36:06.858Z,4.40
2023-12-04T00:39:09.842Z,4.05
2023-12-04T00:42:12.920Z,3.55
2023-12-04T00:45:16.297Z,4.43
2023-12-04T00:48:19.451Z,6.78
2023-12-04T00:51:22.469Z,7.53
2023-12-04T00:54:25.456Z,7.72
2023-12-04T00:57:28.660Z,7.30
2023-12-04T01:00:31.832Z,4.10
2023-12-04T01:03:35.191Z,4.25
2023-12-04T01:06:38.232Z,5.53
2023-12-04T01:09:41.232Z,6.00
2023-12-04T01:12:44.271Z,5.25
2023-12-04T01:15:49.668Z,4.57
2023-12-04T01:18:52.840Z,5.13
2023-12-04T01:21:55.962Z,4.90
2023-12-04T01:24:59.070Z,4.85
2023-12-04T01:28:02.127Z,5.28
2023-12-04T01:31:05.595Z,5.43
2023-12-04T01:34:08.705Z,7.18
2023-12-04T01:37:12.890Z,5.82
2023-12-04T01:40:15.925Z,6.07
2023-12-04T01:43:19.480Z,5.20
2023-12-04T01:46:22.504Z,6.13
2023-12-04T01:49:25.726Z,6.88
2023-12-04T01:52:28.816Z,6.15
2023-12-04T01:55:32.179Z,6.20
2023-12-04T01:58:35.258Z,7.95
2023-12-04T02:01:38.331Z,7.57
2023-12-04T02:04:41.404Z,6.63
2023-12-04T02:07:44.506Z,6.97
2023-12-04T02:10:47.624Z,6.18
2023-12-04T02:13:50.628Z,6.10
2023-12-04T02:16:53.651Z,6.23
2023-12-04T02:19:56.690Z,6.75
2023-12-04T02:22:59.761Z,6.22
2023-12-04T02:26:11.941Z,7.13
2023-12-04T02:29:17.522Z,5.30
2023-12-04T02:32:21.037Z,7.13
2023-12-04T02:35:25.504Z,5.32
2023-12-04T02:38:28.684Z,7.55
2023-12-04T02:41:31.664Z,6.82
2023-12-04T02:44:34.733Z,5.57
2023-12-04T02:47:37.805Z,9.07
2023-12-04T02:50:40.803Z,6.93
2023-12-04T02:53:43.760Z,7.80
2023-12-04T02:56:46.733Z,9.70
2023-12-04T02:59:50.398Z,10.60
2023-12-04T03:02:53.400Z,9.67
2023-12-04T03:05:56.447Z,9.18
2023-12-04T03:09:00.825Z,8.10
2023-12-04T03:12:03.908Z,10.05
2023-12-04T03:15:07.396Z,9.90
2023-12-04T03:18:12.628Z,12.30
2023-12-04T03:21:16.175Z,8.32
2023-12-04T03:24:19.181Z,7.32
2023-12-04T03:27:22.197Z,9.05
2023-12-04T03:30:25.238Z,10.73
2023-12-04T03:33:28.667Z,8.90
2023-12-04T03:36:31.719Z,8.43
2023-12-04T03:39:34.758Z,7.60
2023-12-04T03:42:37.772Z,8.68
2023-12-04T03:45:40.787Z,7.18
2023-12-04T03:48:43.890Z,6.80
2023-12-04T03:51:47.010Z,7.18
2023-12-04T03:54:50.076Z,7.30
2023-12-04T03:57:54.332Z,8.73
2023-12-04T04:00:57.338Z,7.40
2023-12-04T04:04:00.437Z,6.57
2023-12-04T04:07:03.623Z,6.80
2023-12-04T04:10:07.283Z,9.10
2023-12-04T04:13:10.407Z,8.98
2023-12-04T04:16:19.770Z,9.32
2023-12-04T04:19:22.848Z,7.40
2023-12-04T04:22:25.882Z,7.40
2023-12-04T04:25:28.872Z,6.97
2023-12-04T04:28:31.847Z,8.20
2023-12-04T04:31:35.375Z,7.35
2023-12-04T04:34:39.072Z,7.07
2023-12-04T04:37:44.684Z,8.00
2023-12-04T04:40:48.706Z,9.57
2023-12-04T04:43:51.733Z,7.40
2023-12-04T04:46:54.722Z,7.70
2023-12-04T04:49:57.757Z,9.23
2023-12-04T04:53:01.056Z,7.82
2023-12-04T04:56:04.334Z,7.15
2023-12-04T04:59:07.367Z,6.38
2023-12-04T05:02:10.397Z,6.78
2023-12-04T05:05:13.494Z,7.83
2023-12-04T05:08:16.671Z,7.43
2023-12-04T05:11:19.795Z,5.47
2023-12-04T05:14:22.820Z,5.65
2023-12-04T05:17:25.916Z,7.30
2023-12-04T05:20:28.958Z,10.20
2023-12-04T05:23:31.934Z,12.13
2023-12-04T05:26:35.039Z,11.32
2023-12-04T05:29:38.076Z,10.73
2023-12-04T05:32:41.177Z,8.68
2023-12-04T05:35:44.211Z,8.00
2023-12-04T05:38:47.160Z,5.75
2023-12-04T05:41:50.195Z,6.75
2023-12-04T05:44:56.529Z,7.50
2023-12-04T05:47:59.786Z,12.43
2023-12-04T05:51:02.921Z,11.90
2023-12-04T05:54:05.908Z,10.18
2023-12-04T05:57:08.869Z,10.55
2023-12-04T06:00:13.840Z,10.55
2023-12-04T06:03:17.047Z,9.80
2023-12-04T06:06:20.057Z,10.67
2023-12-04T06:09:23.066Z,10.63
2023-12-04T06:12:26.080Z,7.82
2023-12-04T06:15:29.053Z,8.15
2023-12-04T06:18:32.045Z,6.85
2023-12-04T06:21:35.213Z,8.87
2023-12-04T06:24:38.573Z,7.88
2023-12-04T06:27:41.940Z,7.55
2023-12-04T06:30:45.151Z,10.77
2023-12-04T06:33:48.508Z,10.57
2023-12-04T06:36:51.736Z,9.47
2023-12-04T06:39:55.377Z,12.80
2023-12-04T06:42:58.749Z,9.38
2023-12-04T06:46:02.105Z,10.98
2023-12-04T06:49:07.697Z,8.93
2023-12-04T06:52:10.902Z,8.73
2023-12-04T06:55:14.669Z,8.77
2023-12-04T06:58:17.920Z,8.15
2023-12-04T07:01:20.937Z,11.38
2023-12-04T07:04:24.176Z,13.68
2023-12-04T07:07:27.239Z,11.10
2023-12-04T07:10:32.437Z,11.95
2023-12-04T07:13:37.426Z,20.17
2023-12-04T07:16:42.182Z,18.33
2023-12-04T07:19:45.218Z,16.50
2023-12-04T07:22:48.223Z,14.00
2023-12-04T07:25:52.965Z,14.02
2023-12-04T07:28:56.052Z,11.75
2023-12-04T07:32:00.032Z,10.75
2023-12-04T07:35:03.094Z,10.63
2023-12-04T07:38:06.184Z,11.33
2023-12-04T07:41:09.309Z,10.65
2023-12-04T07:44:15.233Z,10.88
2023-12-04T07:47:18.260Z,10.80
2023-12-04T07:50:21.366Z,10.23
2023-12-04T07:53:24.386Z,12.20
2023-12-04T07:56:27.390Z,9.18
2023-12-04T07:59:30.785Z,12.00
2023-12-04T08:02:35.707Z,10.75
2023-12-04T08:05:39.050Z,12.02
2023-12-04T08:08:44.966Z,11.63
2023-12-04T08:11:48.052Z,13.02
2023-12-04T08:14:51.234Z,11.90
2023-12-04T08:17:54.560Z,11.60
2023-12-04T08:20:57.667Z,12.55
2023-12-04T08:24:00.815Z,13.70
2023-12-04T08:27:04.319Z,12.27
2023-12-04T08:30:08.122Z,12.15
2023-12-04T08:33:11.284Z,12.25
2023-12-04T08:36:14.605Z,14.07
2023-12-04T08:39:17.736Z,12.23
2023-12-04T08:42:23.903Z,12.90
2023-12-04T08:45:27.249Z,11.52
2023-12-04T08:48:31.144Z,13.27
2023-12-04T08:51:35.272Z,11.40
2023-12-04T08:54:42.898Z,11.83
2023-12-04T08:57:46.069Z,11.82
2023-12-04T09:00:49.252Z,12.35
2023-12-04T09:03:53.812Z,11.80
2023-12-04T09:10:08.272Z,12.37
2023-12-04T09:13:14.185Z,11.80
2023-12-04T09:16:17.374Z,12.85
2023-12-04T09:19:20.558Z,12.75
2023-12-04T09:25:27.202Z,12.97
2023-12-04T09:28:30.374Z,13.52
2023-12-04T09:31:34.156Z,14.07
2023-12-04T09:34:37.347Z,14.18
2023-12-04T09:37:40.438Z,12.95
2023-12-04T09:40:43.525Z,13.23
2023-12-04T09:43:46.924Z,12.60
2023-12-04T09:46:49.942Z,14.68
2023-12-04T09:49:54.438Z,13.82
2023-12-04T09:52:57.686Z,14.85
2023-12-04T09:56:01.914Z,13.40
2023-12-04T09:59:05.808Z,11.85
2023-12-04T10:02:08.950Z,16.13
2023-12-04T10:05:12.725Z,12.82
2023-12-04T10:08:16.016Z,11.68
2023-12-04T10:11:19.090Z,9.67
2023-12-04T10:14:22.598Z,10.35
2023-12-04T10:17:25.958Z,9.88
2023-12-04T10:20:30.595Z,10.18
2023-12-04T10:23:44.710Z,9.52
2023-12-04T10:26:53.707Z,8.83
2023-12-04T10:29:57.808Z,8.95
2023-12-04T10:33:07.285Z,9.77
2023-12-04T10:36:14.229Z,9.15
2023-12-04T10:39:18.774Z,9.68
2023-12-04T10:42:31.925Z,8.53
2023-12-04T10:45:35.910Z,10.40
2023-12-04T10:48:39.110Z,10.38
2023-12-04T10:51:42.481Z,9.00
2023-12-04T10:54:46.069Z,9.70
2023-12-04T10:57:50.582Z,10.17
2023-12-04T11:00:55.640Z,9.65
2023-12-04T11:04:00.262Z,8.95
2023-12-04T11:07:07.716Z,10.02
2023-12-04T11:10:12.017Z,8.93
2023-12-04T11:13:24.925Z,9.37
2023-12-04T11:16:38.354Z,9.45
2023-12-04T11:20:19.400Z,11.68
2023-12-04T11:23:23.269Z,9.68
2023-12-04T11:26:26.279Z,9.15
2023-12-04T11:29:29.971Z,10.57
2023-12-04T11:32:33.102Z,9.38
2023-12-04T11:35:36.252Z,8.18
2023-12-04T11:38:41.632Z,8.57
2023-12-04T11:41:44.807Z,8.88
2023-12-04T11:44:50.685Z,7.97
2023-12-04T11:47:58.023Z,8.35
2023-12-04T11:51:01.864Z,9.10
2023-12-04T11:54:06.160Z,7.57
2023-12-04T11:57:12.143Z,7.13
2023-12-04T12:00:20.336Z,7.43
2023-12-04T12:03:24.081Z,7.75
2023-12-04T12:06:27.515Z,7.20
2023-12-04T12:09:30.939Z,8.18
2023-12-04T12:12:34.887Z,7.75
2023-12-04T12:15:40.885Z,8.60
2023-12-04T12:18:44.116Z,7.45
2023-12-04T12:21:48.881Z,8.50
2023-12-04T12:24:52.142Z,7.38
2023-12-04T12:27:55.232Z,8.13
2023-12-04T12:31:02.921Z,7.20
2023-12-04T12:34:06.133Z,7.10
2023-12-04T12:37:10.039Z,7.50
2023-12-04T12:40:13.237Z,7.50
2023-12-04T12:43:16.685Z,7.10
2023-12-04T12:46:20.704Z,8.00
2023-12-04T12:49:32.398Z,8.18
2023-12-04T12:52:39.773Z,8.13
2023-12-04T12:55:45.998Z,6.50
2023-12-04T12:58:49.275Z,7.00
2023-12-04T13:01:53.859Z,7.17
2023-12-04T13:04:58.470Z,7.15
2023-12-04T13:08:01.768Z,7.72
2023-12-04T13:11:05.765Z,6.13
2023-12-04T13:14:09.837Z,6.63
2023-12-04T13:17:12.871Z,6.37
2023-12-04T13:20:17.244Z,6.72
2023-12-04T13:23:20.439Z,7.00
2023-12-04T13:26:23.596Z,6.05
2023-12-04T13:29:26.611Z,6.63
2023-12-04T13:32:29.735Z,6.03
2023-12-04T13:35:32.870Z,5.53
2023-12-04T13:38:38.143Z,5.90
2023-12-04T13:41:59.786Z,5.65
2023-12-04T13:45:03.436Z,6.03
2023-12-04T13:48:06.767Z,6.40
2023-12-04T13:51:13.883Z,6.63
2023-12-04T13:54:29.307Z,6.32
2023-12-04T13:57:44.824Z,6.50
2023-12-04T14:00:47.889Z,5.97
2023-12-04T14:03:51.048Z,5.80
2023-12-04T14:06:54.444Z,6.03
2023-12-04T14:09:57.666Z,6.28
2023-12-04T14:13:01.501Z,6.95
2023-12-04T14:16:05.059Z,6.20
2023-12-04T14:19:08.406Z,5.90
2023-12-04T14:22:11.604Z,6.18
2023-12-04T14:25:14.830Z,6.30
2023-12-04T14:28:25.131Z,5.65
2023-12-04T14:31:31.951Z,6.05
2023-12-04T14:34:35.388Z,8.40
2023-12-04T14:37:38.690Z,9.23
2023-12-04T14:40:42.378Z,13.30
2023-12-04T14:43:45.539Z,13.15
2023-12-04T14:46:48.682Z,12.60
2023-12-04T14:49:55.642Z,11.93
2023-12-04T14:53:01.970Z,11.07
2023-12-04T14:56:25.177Z,12.40
2023-12-04T14:59:47.043Z,11.85
2023-12-04T15:02:50.304Z,13.23
2023-12-04T15:05:53.457Z,13.83
2023-12-04T15:08:59.138Z,11.90
2023-12-04T15:12:14.200Z,13.73
2023-12-04T15:15:32.268Z,13.45
2023-12-04T15:18:44.114Z,15.20
2023-12-04T15:21:47.148Z,17.97
2023-12-04T15:24:50.238Z,17.15
2023-12-04T15:27:53.206Z,15.35
2023-12-04T15:30:59.688Z,18.05
2023-12-04T15:34:05.324Z,16.13
2023-12-04T15:37:09.786Z,11.77
2023-12-04T15:40:13.192Z,12.57
2023-12-04T15:43:16.270Z,12.50
2023-12-04T15:46:19.784Z,11.63
2023-12-04T15:49:23.042Z,12.13
2023-12-04T15:52:28.709Z,10.13
2023-12-04T15:55:31.973Z,9.88
2023-12-04T15:58:35.246Z,10.18
2023-12-04T16:01:38.285Z,10.15
2023-12-04T16:04:41.638Z,9.30
2023-12-04T16:07:44.800Z,9.83
2023-12-04T16:10:47.804Z,10.35
2023-12-04T16:13:50.813Z,10.57
2023-12-04T16:16:53.843Z,8.30
2023-12-04T16:19:58.511Z,12.00
2023-12-04T16:23:01.541Z,12.10
2023-12-04T16:26:04.940Z,10.32
2023-12-04T16:29:07.971Z,9.63
2023-12-04T16:32:11.168Z,10.57
2023-12-04T16:35:14.228Z,10.30
2023-12-04T16:38:17.251Z,8.43
2023-12-04T16:41:20.641Z,8.27
2023-12-04T16:44:23.853Z,8.70
2023-12-04T16:47:27.380Z,7.45
2023-12-04T16:50:31.132Z,8.88
2023-12-04T16:53:34.162Z,8.60
2023-12-04T16:56:37.154Z,8.73
2023-12-04T16:59:40.114Z,8.65
2023-12-04T17:02:43.457Z,9.43
2023-12-04T17:05:48.620Z,9.80
2023-12-04T17:08:52.008Z,8.13
2023-12-04T17:11:55.095Z,9.77
2023-12-04T17:14:59.122Z,11.20
2023-12-04T17:18:02.146Z,10.68
2023-12-04T17:21:05.683Z,10.40
2023-12-04T17:24:09.098Z,11.97
2023-12-04T17:27:12.199Z,10.43
2023-12-04T17:30:15.517Z,9.80
2023-12-04T17:33:19.294Z,10.27
2023-12-04T17:36:22.500Z,10.90
2023-12-04T17:39:25.724Z,9.70
2023-12-04T17:42:28.825Z,11.00
2023-12-04T17:45:34.546Z,9.20
2023-12-04T17:48:38.312Z,8.73
2023-12-04T17:51:41.685Z,9.98
2023-12-04T17:54:44.776Z,11.40
2023-12-04T17:57:48.010Z,11.27
2023-12-04T18:00:51.142Z,9.55
2023-12-04T18:03:54.442Z,9.77
2023-12-04T18:06:59.548Z,9.45
2023-12-04T18:10:02.960Z,10.43
2023-12-04T18:13:06.012Z,11.48
2023-12-04T18:16:09.462Z,15.55
2023-12-04T18:19:12.664Z,10.10
2023-12-04T18:22:15.694Z,9.05
2023-12-04T18:25:19.050Z,10.70
2023-12-04T18:28:22.315Z,10.43
2023-12-04T18:31:25.641Z,11.27
2023-12-04T18:34:29.088Z,10.88
2023-12-04T18:38:01.892Z,11.63
2023-12-04T18:41:05.319Z,12.93
2023-12-04T18:44:09.880Z,12.13
2023-12-04T18:47:13.468Z,9.68
2023-12-04T18:50:16.704Z,11.70
2023-12-04T18:53:22.745Z,12.13
2023-12-04T18:56:26.266Z,12.60
2023-12-04T18:59:29.408Z,10.48
2023-12-04T19:02:32.494Z,11.75
2023-12-04T19:05:35.677Z,10.52
2023-12-04T19:08:38.958Z,10.45
2023-12-04T19:11:41.970Z,10.43
2023-12-04T19:14:44.975Z,10.18
2023-12-04T19:17:48.090Z,10.68
2023-12-04T19:20:51.183Z,11.27
2023-12-04T19:23:54.233Z,10.55
2023-12-04T19:26:57.700Z,10.20
2023-12-04T19:30:00.726Z,9.32
2023-12-04T19:33:06.832Z,10.15
2023-12-04T19:36:14.923Z,9.52
2023-12-04T19:39:18.075Z,12.05
2023-12-04T19:42:21.139Z,10.13
2023-12-04T19:45:24.230Z,11.07
2023-12-04T19:48:28.882Z,11.57
2023-12-04T19:51:31.908Z,10.48
2023-12-04T19:54:34.993Z,11.20
2023-12-04T19:57:38.191Z,10.97
2023-12-04T20:00:42.279Z,10.32
2023-12-04T20:03:46.278Z,10.98
2023-12-04T20:06:49.365Z,10.48
2023-12-04T20:09:52.384Z,11.63
2023-12-04T20:12:55.412Z,12.27
2023-12-04T20:15:58.413Z,12.43
2023-12-04T20:19:02.146Z,11.45
2023-12-04T20:22:05.354Z,10.05
2023-12-04T20:25:08.611Z,11.52
2023-12-04T20:28:12.271Z,12.90
2023-12-04T20:31:15.309Z,10.18
2023-12-04T20:34:18.382Z,10.57
2023-12-04T20:37:21.414Z,10.80
2023-12-04T20:40:24.453Z,12.27
2023-12-04T20:43:27.786Z,11.10
2023-12-04T20:46:30.811Z,11.75
2023-12-04T20:49:34.289Z,15.23
2023-12-04T20:52:38.126Z,11.02
2023-12-04T20:55:41.218Z,10.68
2023-12-04T20:58:44.198Z,10.43
2023-12-04T21:01:51.204Z,9.77
2023-12-04T21:04:54.463Z,9.23
2023-12-04T21:07:58.636Z,10.13
2023-12-04T21:11:01.614Z,9.20
2023-12-04T21:14:05.093Z,9.87
2023-12-04T21:17:09.559Z,11.05
2023-12-04T21:20:12.906Z,11.40
2023-12-04T21:23:16.091Z,10.07
2023-12-04T21:26:19.126Z,9.98
2023-12-04T21:29:22.184Z,11.00
2023-12-04T21:32:25.374Z,9.30
2023-12-04T21:35:28.438Z,9.65
2023-12-04T21:38:32.197Z,10.75
2023-12-04T21:41:35.278Z,11.48
2023-12-04T21:44:38.287Z,11.10
2023-12-04T21:47:41.434Z,9.82
2023-12-04T21:50:45.019Z,10.85
2023-12-04T21:53:48.032Z,11.35
2023-12-04T21:56:51.458Z,11.32
2023-12-04T21:59:54.586Z,13.73
2023-12-04T22:02:57.921Z,12.18
2023-12-04T22:06:01.871Z,11.15
2023-12-04T22:09:04.948Z,10.20
2023-12-04T22:12:08.233Z,10.98
2023-12-04T22:15:11.482Z,10.60
2023-12-04T22:18:14.668Z,10.23
2023-12-04T22:21:19.944Z,11.52
2023-12-04T22:24:23.002Z,11.00
2023-12-04T22:27:26.001Z,9.50
2023-12-04T22:30:29.106Z,9.20
2023-12-04T22:33:32.486Z,9.55
2023-12-04T22:36:35.668Z,9.82
2023-12-04T22:39:38.790Z,10.05
2023-12-04T22:42:42.091Z,10.82
2023-12-04T22:45:45.147Z,9.57
2023-12-04T22:48:49.940Z,12.50
2023-12-04T22:51:53.238Z,11.30
2023-12-04T22:54:56.303Z,9.77
2023-12-04T22:57:59.288Z,9.85
2023-12-04T23:01:03.797Z,10.30
2023-12-04T23:04:07.076Z,9.45
2023-12-04T23:07:10.126Z,10.05
2023-12-04T23:10:13.141Z,10.02
2023-12-04T23:13:16.207Z,10.68
2023-12-04T23:16:19.968Z,9.93
2023-12-04T23:19:23.127Z,9.85
2023-12-04T23:22:26.206Z,10.23
2023-12-04T23:25:29.245Z,9.27
2023-12-04T23:28:32.322Z,9.60
2023-12-04T23:31:35.341Z,11.23
2023-12-04T23:34:38.500Z,9.93
2023-12-04T23:37:41.535Z,10.25
2023-12-04T23:40:44.574Z,12.00
2023-12-04T23:43:47.608Z,11.50
2023-12-04T23:46:51.157Z,11.30
2023-12-04T23:49:54.200Z,9.98
2023-12-04T23:52:57.251Z,11.13
2023-12-04T23:56:00.231Z,9.57
2023-12-04T23:59:03.285Z,9.90
